Time;durP1;ratioP1;P1;durP2;ratioP2;P2;SDS_P1;SDS_P2;PMS_P1;PMS_P2;Temp;Humidity;BMP_temperature;BMP_pressure;BME280_temperature;BME280_humidity;BME280_pressure;Samples;Min_cycle;Max_cycle;Signal;HPM_P1;HPM_P2
2022/11/02 00:00:53;;;;;;;1.63;0.40;;;13.90;99.90;13.90;101188.00;;;;5094872;28;20667;-70
2022/11/02 00:03:19;;;;;;;0.30;0.30;;;13.80;99.90;13.80;101196.00;;;;5095623;28;20269;-70
2022/11/02 00:05:52;;;;;;;0.93;0.77;;;13.70;99.90;13.80;101189.00;;;;5095557;28;20622;-70
2022/11/02 00:08:21;;;;;;;2.03;0.90;;;13.70;99.90;13.70;101188.00;;;;5094191;28;20646;-70
2022/11/02 00:10:47;;;;;;;0.33;0.33;;;13.70;99.90;14.00;101199.00;;;;5095685;28;20172;-70
2022/11/02 00:13:16;;;;;;;2.57;1.03;;;13.70;99.90;14.20;101199.00;;;;5094258;28;20672;-69
2022/11/02 00:15:42;;;;;;;0.30;0.30;;;13.80;99.90;14.20;101204.00;;;;5094586;28;20253;-69
2022/11/02 00:18:10;;;;;;;0.30;0.30;;;13.80;99.90;14.00;101185.00;;;;5094065;28;20180;-70
2022/11/02 00:20:38;;;;;;;0.20;0.20;;;13.80;99.90;13.80;101207.00;;;;5094353;28;20184;-70
2022/11/02 00:23:06;;;;;;;0.30;0.30;;;13.70;99.90;13.80;101195.00;;;;5093809;28;20210;-70
2022/11/02 00:25:32;;;;;;;0.30;0.30;;;13.70;99.90;13.50;101200.00;;;;5094355;28;20155;-70
2022/11/02 00:27:59;;;;;;;0.40;0.40;;;13.50;99.90;13.80;101201.00;;;;5094318;28;20188;-69
2022/11/02 00:30:24;;;;;;;0.60;0.60;;;13.60;99.90;13.40;101210.00;;;;5094100;28;20248;-69
2022/11/02 00:32:53;;;;;;;0.30;0.30;;;13.50;99.90;13.90;101146.00;;;;5094152;28;20189;-69
2022/11/02 00:35:22;;;;;;;0.30;0.30;;;13.60;99.90;13.80;101215.00;;;;5093807;28;20182;-69
2022/11/02 00:38:13;;;;;;;0.20;0.20;;;13.60;99.90;13.50;101207.00;;;;5093997;28;20525;-69
2022/11/02 00:41:05;;;;;;;0.20;0.20;;;13.50;99.90;13.80;101184.00;;;;5094920;28;20657;-69
2022/11/02 00:44:10;;;;;;;0.20;0.20;;;13.50;99.90;13.40;101220.00;;;;5093982;28;20195;-69
2022/11/02 00:47:06;;;;;;;0.20;0.20;;;13.50;99.90;14.00;101207.00;;;;5094072;28;20190;-68
2022/11/02 00:49:56;;;;;;;0.20;0.20;;;13.50;99.90;13.50;101222.00;;;;5087391;28;20272;-68
2022/11/02 00:52:45;;;;;;;0.20;0.20;;;13.50;99.90;14.20;101222.00;;;;5062648;28;20945;-68
2022/11/02 00:55:39;;;;;;;0.20;0.20;;;13.60;99.90;13.90;101234.00;;;;5092575;28;20192;-68
2022/11/02 00:58:22;;;;;;;0.50;0.50;;;13.60;99.90;13.70;101243.00;;;;5093608;28;20249;-68
2022/11/02 01:01:28;;;;;;;0.20;0.20;;;13.60;99.90;14.10;101178.00;;;;5093843;28;20652;-69
2022/11/02 01:04:17;;;;;;;0.30;0.30;;;13.60;99.90;13.50;101238.00;;;;5091134;28;20189;-69
2022/11/02 01:07:10;;;;;;;0.30;0.30;;;13.50;99.90;13.50;101224.00;;;;5093801;28;20212;-70
2022/11/02 01:10:16;;;;;;;0.27;0.27;;;13.40;99.90;13.50;101227.00;;;;5094685;28;20202;-70
2022/11/02 01:13:28;;;;;;;0.40;0.40;;;13.40;99.90;14.20;101246.00;;;;5113701;28;20192;-68
2022/11/02 01:16:34;;;;;;;0.40;0.40;;;13.60;99.90;13.80;101244.00;;;;5113652;28;20181;-68
2022/11/02 01:19:41;;;;;;;0.40;0.40;;;13.60;99.90;13.80;101255.00;;;;5113566;28;20187;-68
2022/11/02 01:22:29;;;;;;;0.23;0.23;;;13.50;99.90;13.40;101258.00;;;;5081442;28;20207;-68
2022/11/02 01:25:24;;;;;;;1.03;0.50;;;13.40;99.90;13.60;101243.00;;;;5104002;28;20251;-68
2022/11/02 01:28:00;;;;;;;0.97;0.57;;;13.40;99.90;13.70;101267.00;;;;5114707;28;20179;-68
2022/11/02 01:30:53;;;;;;;0.40;0.40;;;13.50;99.90;13.80;101259.00;;;;5113252;28;20197;-69
2022/11/02 01:33:54;;;;;;;0.20;0.20;;;13.40;99.90;13.40;101250.00;;;;5105206;28;20195;-69
2022/11/02 01:36:56;;;;;;;0.20;0.20;;;13.40;99.90;13.70;101258.00;;;;5114454;28;20191;-69
2022/11/02 01:39:46;;;;;;;0.40;0.40;;;13.30;99.90;13.70;101267.00;;;;5104433;28;20191;-69
2022/11/02 01:43:00;;;;;;;2.57;0.43;;;13.40;99.90;14.00;101272.00;;;;5092642;28;20213;-68
2022/11/02 01:45:40;;;;;;;0.20;0.20;;;13.50;99.90;13.90;101256.00;;;;5034981;28;20700;-69
2022/11/02 01:48:39;;;;;;;1.93;1.73;;;13.50;99.90;13.50;101267.00;;;;5034663;28;20180;-68
2022/11/02 01:51:34;;;;;;;0.20;0.20;;;13.40;99.90;13.40;101258.00;;;;5092736;28;20211;-67
2022/11/02 01:54:25;;;;;;;2.23;0.97;;;13.30;99.90;13.60;101264.00;;;;5086452;28;20689;-68
2022/11/02 01:57:18;;;;;;;0.30;0.30;;;13.20;99.90;13.50;101253.00;;;;5092579;28;20641;-68
2022/11/02 02:00:11;;;;;;;0.20;0.20;;;13.30;99.90;13.80;101275.00;;;;5092594;28;20164;-68
2022/11/02 02:03:17;;;;;;;5.93;0.77;;;13.40;99.90;13.60;101270.00;;;;5092423;28;20215;-68
2022/11/02 02:06:15;;;;;;;0.70;0.70;;;13.30;99.90;13.40;101212.00;;;;5092084;28;20174;-68
2022/11/02 02:09:08;;;;;;;0.37;0.37;;;13.20;99.90;13.30;101253.00;;;;5088751;28;20198;-68
2022/11/02 02:11:57;;;;;;;1.10;0.93;;;13.30;99.90;13.10;101251.00;;;;5092563;28;20237;-68
2022/11/02 02:14:50;;;;;;;0.20;0.20;;;13.20;99.90;13.30;101244.00;;;;5109158;28;20297;-69
2022/11/02 02:17:46;;;;;;;0.63;0.63;;;13.10;99.90;13.30;101263.00;;;;5091709;28;20177;-69
2022/11/02 02:20:49;;;;;;;0.50;0.50;;;13.10;99.90;13.40;101260.00;;;;5092219;28;20191;-68
2022/11/02 02:23:53;;;;;;;0.43;0.43;;;13.10;99.90;13.30;101280.00;;;;5092113;28;20192;-69
2022/11/02 02:27:02;;;;;;;0.40;0.40;;;13.10;99.90;13.40;101284.00;;;;5092241;28;20181;-68
2022/11/02 02:30:02;;;;;;;0.30;0.30;;;13.10;99.90;13.10;101283.00;;;;5093502;28;20655;-68
2022/11/02 02:33:23;;;;;;;0.27;0.27;;;13.00;99.90;12.80;101292.00;;;;5092965;28;20169;-68
2022/11/02 02:36:35;;;;;;;0.20;0.20;;;12.90;99.90;13.30;101281.00;;;;5070430;28;20673;-68
2022/11/02 02:39:32;;;;;;;0.90;0.30;;;13.00;99.90;12.90;101293.00;;;;5070742;28;20346;-68
2022/11/02 02:42:21;;;;;;;0.23;0.23;;;12.90;99.90;13.30;101296.00;;;;5065591;28;20239;-68
2022/11/02 02:45:30;;;;;;;0.27;0.27;;;13.00;99.90;13.60;101244.00;;;;5054267;28;20189;-67
2022/11/02 02:48:34;;;;;;;3.00;0.57;;;13.10;99.90;13.70;101310.00;;;;5065242;28;20220;-68
2022/11/02 02:51:44;;;;;;;1.07;1.07;;;13.30;99.90;13.50;101319.00;;;;5070224;28;20203;-68
2022/11/02 02:54:47;;;;;;;8.67;2.20;;;13.30;99.90;13.00;101312.00;;;;5074109;28;20191;-68
2022/11/02 02:57:53;;;;;;;0.20;0.20;;;13.10;99.90;13.60;101305.00;;;;5091699;28;20614;-68
2022/11/02 03:00:40;;;;;;;0.20;0.20;;;13.30;99.90;13.40;101336.00;;;;5091569;28;20199;-68
2022/11/02 03:03:54;;;;;;;0.60;0.60;;;13.20;99.90;13.80;101335.00;;;;5091600;28;20204;-69
2022/11/02 03:06:37;;;;;;;0.20;0.20;;;13.30;99.90;14.10;101336.00;;;;5091953;28;20199;-68
2022/11/02 03:10:07;;;;;;;0.30;0.30;;;13.40;99.90;12.90;101330.00;;;;5092025;28;20187;-68
2022/11/02 03:13:05;;;;;;;0.50;0.50;;;13.20;99.90;13.00;101324.00;;;;5074971;28;20546;-68
2022/11/02 03:19:42;;;;;;;0.50;0.50;;;13.10;99.90;13.60;101341.00;;;;5091853;28;20186;-68
2022/11/02 03:22:37;;;;;;;0.20;0.20;;;13.20;99.90;13.60;101346.00;;;;5093374;28;20230;-69
2022/11/02 03:25:38;;;;;;;0.20;0.20;;;13.20;99.90;13.30;101347.00;;;;5094567;28;20191;-68
2022/11/02 03:31:54;;;;;;;0.20;0.20;;;13.10;99.90;13.10;101306.00;;;;5093912;28;20565;-68
2022/11/02 03:35:00;;;;;;;0.20;0.20;;;12.90;99.90;12.90;101362.00;;;;5096083;28;20195;-68
2022/11/02 03:37:39;;;;;;;0.20;0.20;;;12.90;99.90;13.20;101365.00;;;;5095561;28;20271;-68
2022/11/02 03:40:39;;;;;;;0.23;0.23;;;12.90;99.90;13.10;101365.00;;;;5096225;28;20636;-67
2022/11/02 03:43:38;;;;;;;0.30;0.30;;;13.00;99.90;13.20;101322.00;;;;5094690;28;20230;-68
2022/11/02 03:46:33;;;;;;;4.27;0.60;;;13.10;99.90;12.90;101336.00;;;;5081821;28;20195;-67
2022/11/02 03:49:39;;;;;;;0.20;0.20;;;12.90;99.90;12.70;101380.00;;;;5088285;28;20694;-68
2022/11/02 03:52:36;;;;;;;0.93;0.93;;;12.70;99.90;12.90;101376.00;;;;5093272;28;20247;-68
2022/11/02 03:55:41;;;;;;;0.30;0.30;;;12.70;99.90;12.60;101386.00;;;;5088897;28;20199;-68
2022/11/02 03:58:17;;;;;;;10.80;1.57;;;12.60;99.90;12.60;101384.00;;;;5094690;28;20224;-68
2022/11/02 04:01:25;;;;;;;10.00;1.77;;;12.60;99.90;12.30;101405.00;;;;5094960;28;20186;-69
2022/11/02 04:04:34;;;;;;;0.37;0.23;;;12.50;99.90;12.60;101389.00;;;;5077675;28;20205;-69
2022/11/02 04:14:37;;;;;;;0.30;0.30;;;12.50;99.90;12.90;101432.00;;;;5094537;28;20216;-69
2022/11/02 04:20:53;;;;;;;0.20;0.20;;;12.40;99.90;11.90;101438.00;;;;5095160;28;20241;-69
2022/11/02 04:27:07;;;;;;;2.20;1.03;;;12.30;99.90;12.30;101453.00;;;;5094465;28;20197;-68
2022/11/02 04:30:14;;;;;;;0.50;0.50;;;12.20;99.90;12.10;101470.00;;;;5106821;28;20186;-69
2022/11/02 04:36:31;;;;;;;0.40;0.40;;;12.10;99.90;12.20;101484.00;;;;5094204;28;20266;-69
2022/11/02 04:39:43;;;;;;;0.30;0.30;;;12.10;99.90;11.90;101489.00;;;;5091563;28;20195;-69
2022/11/02 04:42:41;;;;;;;0.47;0.47;;;12.20;99.90;12.00;101485.00;;;;5112748;28;20231;-69
2022/11/02 04:45:35;;;;;;;1.90;0.40;;;12.00;99.90;11.70;101467.00;;;;5092422;28;20642;-69
2022/11/02 04:48:24;;;;;;;4.00;1.13;;;12.00;99.90;11.70;101522.00;;;;5086550;28;20221;-69
2022/11/02 04:51:30;;;;;;;7.23;1.60;;;11.90;99.90;11.70;101519.00;;;;5115189;28;20726;-68
2022/11/02 04:54:39;;;;;;;0.20;0.20;;;11.90;99.90;12.10;101520.00;;;;5114319;28;20224;-69
2022/11/02 04:57:53;;;;;;;5.93;1.43;;;11.90;99.90;11.50;101538.00;;;;5113957;28;20190;-69
2022/11/02 05:00:39;;;;;;;1.50;1.07;;;11.90;99.90;12.00;101539.00;;;;5113751;28;20276;-69
2022/11/02 05:03:05;;;;;;;2.80;0.30;;;11.90;99.90;11.80;101543.00;;;;5114930;28;20309;-69
2022/11/02 05:05:34;;;;;;;3.00;1.30;;;11.90;99.90;11.90;101558.00;;;;5114823;28;20755;-69
2022/11/02 05:08:00;;;;;;;0.30;0.30;;;11.90;99.90;11.90;101526.00;;;;5113919;28;20183;-69
2022/11/02 05:10:26;;;;;;;0.80;0.80;;;11.80;99.90;11.70;101569.00;;;;5110997;28;20372;-69
2022/11/02 05:12:58;;;;;;;0.30;0.30;;;11.90;99.90;11.70;101571.00;;;;5094204;28;20181;-69
2022/11/02 05:15:28;;;;;;;4.43;1.20;;;11.80;99.90;11.50;101578.00;;;;5093166;28;20183;-69
2022/11/02 05:17:57;;;;;;;0.77;0.60;;;11.80;99.90;11.50;101582.00;;;;5094591;28;20177;-68
2022/11/02 05:20:23;;;;;;;0.20;0.20;;;11.80;99.90;11.70;101573.00;;;;5093085;28;20185;-69
2022/11/02 05:22:51;;;;;;;1.13;1.07;;;11.80;99.90;11.80;101572.00;;;;5093586;28;20574;-68
2022/11/02 05:25:17;;;;;;;2.47;0.30;;;11.80;99.90;11.50;101518.00;;;;5097530;28;20182;-69
2022/11/02 05:27:52;;;;;;;0.20;0.20;;;11.70;99.90;11.50;101596.00;;;;5112782;28;20181;-68
2022/11/02 05:30:21;;;;;;;0.30;0.30;;;11.70;99.90;11.50;101587.00;;;;5114536;28;20650;-69
2022/11/02 05:32:47;;;;;;;0.53;0.53;;;11.70;99.90;11.70;101587.00;;;;5113725;28;20610;-69
2022/11/02 05:35:15;;;;;;;0.20;0.20;;;11.70;99.90;11.40;101580.00;;;;5096143;28;20210;-69
2022/11/02 05:37:41;;;;;;;0.83;0.37;;;11.60;99.90;11.50;101614.00;;;;5114661;28;20256;-69
2022/11/02 05:40:08;;;;;;;0.50;0.50;;;11.60;99.90;11.50;101599.00;;;;5112824;28;20269;-69
2022/11/02 05:42:34;;;;;;;1.53;0.67;;;11.60;99.90;11.60;101605.00;;;;5113697;28;20216;-69
2022/11/02 05:45:03;;;;;;;0.30;0.30;;;11.60;99.90;11.60;101615.00;;;;5112874;28;20224;-69
2022/11/02 05:47:29;;;;;;;0.20;0.20;;;11.70;99.90;11.80;101618.00;;;;5113075;28;20171;-69
2022/11/02 05:49:55;;;;;;;0.20;0.20;;;11.70;99.90;11.60;101607.00;;;;5113270;28;20626;-69
2022/11/02 05:52:21;;;;;;;0.20;0.20;;;11.70;99.90;12.20;101615.00;;;;5114182;28;20183;-69
2022/11/02 05:54:47;;;;;;;0.20;0.20;;;11.80;99.90;12.10;101623.00;;;;5113974;28;20522;-69
2022/11/02 05:57:15;;;;;;;0.20;0.20;;;11.80;99.90;12.20;101613.00;;;;5112969;28;20205;-69
2022/11/02 05:59:42;;;;;;;0.20;0.20;;;11.80;99.90;12.10;101629.00;;;;5114065;28;20208;-69
2022/11/02 06:02:08;;;;;;;0.20;0.20;;;11.80;99.90;12.00;101633.00;;;;5129627;27;20204;-69
2022/11/02 06:04:36;;;;;;;0.30;0.30;;;11.80;99.90;11.60;101604.00;;;;5112804;28;20186;-69
2022/11/02 06:07:03;;;;;;;0.23;0.23;;;11.60;99.90;12.10;101614.00;;;;5113253;28;20166;-69
2022/11/02 06:09:31;;;;;;;0.20;0.20;;;11.70;99.90;12.00;101636.00;;;;5095663;28;20185;-68
2022/11/02 06:11:57;;;;;;;0.20;0.20;;;11.70;99.90;11.90;101642.00;;;;5099851;28;20664;-69
2022/11/02 06:14:26;;;;;;;2.63;0.70;;;11.60;99.90;12.10;101651.00;;;;5092441;28;20206;-69
2022/11/02 06:16:52;;;;;;;0.20;0.20;;;11.70;99.90;12.20;101643.00;;;;5093655;28;20707;-69
2022/11/02 06:19:18;;;;;;;0.40;0.40;;;11.70;99.90;12.00;101655.00;;;;5093486;28;20177;-69
2022/11/02 06:21:46;;;;;;;0.90;0.40;;;11.70;99.90;11.50;101658.00;;;;5075213;28;20238;-69
2022/11/02 06:24:15;;;;;;;0.50;0.50;;;11.50;99.90;11.50;101662.00;;;;5092048;28;20174;-68
2022/11/02 06:26:41;;;;;;;0.97;0.60;;;11.50;99.90;11.60;101671.00;;;;5093291;28;20266;-68
2022/11/02 06:29:07;;;;;;;0.20;0.20;;;11.40;99.90;11.90;101670.00;;;;5093423;28;20255;-68
2022/11/02 06:31:39;;;;;;;0.20;0.20;;;11.50;99.90;11.60;101670.00;;;;5092192;28;20643;-68
2022/11/02 06:34:07;;;;;;;0.30;0.30;;;11.40;99.90;12.10;101645.00;;;;5091899;28;20182;-69
2022/11/02 06:36:33;;;;;;;0.30;0.30;;;11.50;99.90;11.80;101684.00;;;;5092079;28;20183;-68
2022/11/02 06:39:05;;;;;;;0.20;0.20;;;11.50;99.90;12.10;101637.00;;;;5099296;28;20547;-69
2022/11/02 06:41:31;;;;;;;0.20;0.20;;;11.60;99.90;11.90;101689.00;;;;5104430;28;20197;-68
2022/11/02 06:44:03;;;;;;;0.30;0.30;;;11.60;99.90;12.30;101692.00;;;;5093167;28;20562;-69
2022/11/02 06:46:34;;;;;;;0.47;0.47;;;11.70;99.90;12.30;101698.00;;;;5092076;28;20263;-68
2022/11/02 06:49:05;;;;;;;0.20;0.20;;;11.70;99.90;11.30;101655.00;;;;5093168;28;20176;-69
2022/11/02 06:51:31;;;;;;;0.20;0.20;;;11.40;99.90;11.40;101706.00;;;;5091806;28;20173;-69
2022/11/02 06:53:57;;;;;;;0.20;0.20;;;11.30;99.90;11.70;101709.00;;;;5094578;28;20527;-69
2022/11/02 06:56:23;;;;;;;0.20;0.20;;;11.40;99.90;11.90;101719.00;;;;5095817;28;20188;-69
2022/11/02 06:58:57;;;;;;;0.30;0.30;;;11.50;99.90;12.00;101722.00;;;;5096385;28;20268;-68
2022/11/02 07:01:29;;;;;;;0.30;0.30;;;11.60;99.90;12.30;101716.00;;;;5097176;28;20215;-68
2022/11/02 07:03:54;;;;;;;0.30;0.30;;;11.80;99.90;12.20;101726.00;;;;5095686;28;20692;-68
2022/11/02 07:06:29;;;;;;;0.60;0.40;;;11.80;99.90;11.90;101727.00;;;;5096112;28;20674;-69
2022/11/02 07:09:03;;;;;;;0.20;0.20;;;11.70;99.90;11.40;101731.00;;;;5096823;28;20174;-68
2022/11/02 07:11:30;;;;;;;0.30;0.30;;;11.40;99.90;11.80;101671.00;;;;5096760;28;20206;-68
2022/11/02 07:13:56;;;;;;;0.20;0.20;;;11.40;99.90;11.90;101745.00;;;;5096630;28;20192;-69
2022/11/02 07:16:27;;;;;;;0.20;0.20;;;11.50;99.90;12.40;101757.00;;;;5097215;28;20185;-69
2022/11/02 07:18:53;;;;;;;0.20;0.20;;;11.80;99.90;12.10;101756.00;;;;5096720;28;20207;-69
2022/11/02 07:21:19;;;;;;;0.20;0.20;;;11.70;99.90;12.50;101759.00;;;;5095197;28;20177;-69
2022/11/02 07:23:45;;;;;;;0.23;0.23;;;11.90;99.90;11.60;101746.00;;;;5095541;28;20637;-68
2022/11/02 07:26:11;;;;;;;0.20;0.20;;;11.70;99.90;11.70;101760.00;;;;5095773;28;20203;-68
2022/11/02 07:28:44;;;;;;;0.23;0.23;;;11.60;99.90;11.90;101752.00;;;;5096492;28;20539;-68
2022/11/02 07:31:15;;;;;;;11.17;2.87;;;11.60;99.90;12.30;101757.00;;;;5095210;28;20201;-68
2022/11/02 07:33:41;;;;;;;0.20;0.20;;;11.80;99.90;12.50;101764.00;;;;5096699;28;20253;-68
2022/11/02 07:36:19;;;;;;;0.30;0.30;;;12.00;99.90;12.90;101769.00;;;;5096239;28;20172;-68
2022/11/02 07:38:48;;;;;;;0.30;0.30;;;12.10;99.90;12.60;101759.00;;;;5095112;28;20230;-68
2022/11/02 07:41:17;;;;;;;0.30;0.30;;;12.10;99.90;12.50;101784.00;;;;5094857;28;20536;-68
2022/11/02 07:43:43;;;;;;;0.30;0.30;;;12.10;99.90;12.00;101775.00;;;;5096597;28;20644;-68
2022/11/02 07:46:10;;;;;;;4.37;0.83;;;11.90;99.90;11.90;101794.00;;;;5112258;28;20193;-68
2022/11/02 07:48:36;;;;;;;0.20;0.20;;;11.80;99.90;11.80;101807.00;;;;5095078;28;20210;-68
2022/11/02 07:51:06;;;;;;;2.27;1.13;;;11.80;99.90;11.60;101809.00;;;;5096092;28;20266;-68
2022/11/02 07:53:38;;;;;;;1.23;0.50;;;11.70;99.90;11.90;101814.00;;;;5094830;28;20598;-68
2022/11/02 07:56:08;;;;;;;0.20;0.20;;;11.70;99.90;12.20;101805.00;;;;5094926;28;20659;-68
2022/11/02 07:58:34;;;;;;;0.20;0.20;;;11.90;99.90;12.00;101827.00;;;;5094665;28;20273;-68
2022/11/02 08:01:08;;;;;;;0.33;0.33;;;11.90;99.90;11.90;101757.00;;;;5095015;28;20326;-68
2022/11/02 08:03:37;;;;;;;1.60;1.37;;;11.90;99.90;12.00;101764.00;;;;5094792;28;20654;-68
2022/11/02 08:06:12;;;;;;;0.53;0.53;;;11.90;99.90;12.20;101822.00;;;;5095113;28;20264;-68
2022/11/02 08:08:55;;;;;;;0.23;0.23;;;11.90;99.90;12.00;101771.00;;;;5094432;28;20187;-68
2022/11/02 08:11:21;;;;;;;2.43;1.03;;;12.00;99.90;11.70;101824.00;;;;5096101;28;20183;-68
2022/11/02 08:13:49;;;;;;;0.20;0.20;;;11.90;99.90;11.80;101820.00;;;;5094381;28;20647;-68
2022/11/02 08:16:29;;;;;;;0.30;0.30;;;11.80;99.90;12.40;101828.00;;;;5094698;28;20181;-68
2022/11/02 08:18:57;;;;;;;0.20;0.20;;;12.10;99.90;12.20;101823.00;;;;5094225;28;20201;-68
2022/11/02 08:21:35;;;;;;;0.20;0.20;;;12.10;99.90;12.40;101816.00;;;;5094132;28;20282;-68
2022/11/02 08:24:01;;;;;;;0.20;0.20;;;12.10;99.90;12.70;101816.00;;;;5094418;28;20178;-68
2022/11/02 08:26:27;;;;;;;0.20;0.20;;;12.20;99.90;12.90;101774.00;;;;5094595;28;20205;-69
2022/11/02 08:29:04;;;;;;;1.80;0.60;;;12.60;99.90;13.00;101791.00;;;;5095302;28;20236;-69
2022/11/02 08:31:41;;;;;;;0.20;0.20;;;12.70;99.90;13.40;101835.00;;;;5096092;28;20187;-69
2022/11/02 08:34:11;;;;;;;1.17;0.40;;;12.90;99.90;13.00;101842.00;;;;5104501;28;20172;-68
2022/11/02 08:36:59;;;;;;;0.33;0.30;;;13.00;99.90;13.10;101826.00;;;;5105564;28;20188;-65
2022/11/02 08:39:47;;;;;;;0.20;0.20;;;13.00;99.90;13.70;101779.00;;;;5115729;28;20172;-71
2022/11/02 08:42:54;;;;;;;0.20;0.20;;;13.20;99.90;13.40;101855.00;;;;5115192;28;20261;-71
2022/11/02 08:45:23;;;;;;;0.30;0.30;;;13.30;99.90;13.60;101828.00;;;;5078645;28;20279;-70
2022/11/02 08:47:49;;;;;;;1.00;1.00;;;13.50;99.90;13.70;101830.00;;;;5093212;28;20419;-70
2022/11/02 08:50:36;;;;;;;0.20;0.20;;;13.50;99.90;15.20;101856.00;;;;5094461;28;20182;-71
2022/11/02 08:53:03;;;;;;;0.30;0.30;;;14.30;99.90;14.40;101809.00;;;;5108724;28;20560;-70
2022/11/02 08:55:46;;;;;;;0.20;0.20;;;14.40;99.90;14.80;101848.00;;;;5076817;28;20181;-71
2022/11/02 08:58:21;;;;;;;1.00;0.73;;;14.50;99.90;14.80;101860.00;;;;5093721;28;20666;-70
2022/11/02 09:00:47;;;;;;;0.20;0.20;;;14.60;99.90;15.90;101869.00;;;;5093672;28;20209;-70
2022/11/02 09:03:17;;;;;;;1.23;1.23;;;15.00;99.90;15.00;101865.00;;;;5094410;28;20233;-71
2022/11/02 09:06:03;;;;;;;0.20;0.20;;;14.90;99.90;16.00;101883.00;;;;5093161;28;20211;-71
2022/11/02 09:08:29;;;;;;;0.47;0.47;;;15.20;99.90;16.80;101897.00;;;;5094465;28;20188;-71
2022/11/02 09:11:25;;;;;;;2.70;0.60;;;15.80;99.90;14.90;101862.00;;;;5076582;28;20271;-71
2022/11/02 09:14:13;;;;;;;0.33;0.33;;;15.60;99.90;15.00;101857.00;;;;5111908;28;20570;-70
2022/11/02 09:16:50;;;;;;;0.30;0.30;;;14.80;99.90;15.80;101830.00;;;;5114299;28;20190;-71
2022/11/02 09:19:33;;;;;;;0.20;0.20;;;15.30;99.90;16.50;101840.00;;;;5130425;27;20225;-71
2022/11/02 09:22:17;;;;;;;0.10;0.10;;;15.60;99.90;16.30;101888.00;;;;5113466;28;20210;-70
2022/11/02 09:24:45;;;;;;;0.20;0.20;;;15.90;99.90;15.00;101870.00;;;;5112140;28;20176;-71
2022/11/02 09:27:14;;;;;;;0.30;0.30;;;15.40;99.90;15.20;101858.00;;;;5111561;28;20193;-70
2022/11/02 09:29:39;;;;;;;5.83;1.00;;;15.00;99.90;14.10;101851.00;;;;5112040;28;20182;-68
2022/11/02 09:32:05;;;;;;;0.10;0.10;;;14.50;99.90;14.30;101843.00;;;;5112899;27;20193;-70
2022/11/02 09:34:31;;;;;;;0.63;0.43;;;14.30;99.90;15.50;101864.00;;;;5112847;28;20203;-74
2022/11/02 09:37:00;;;;;;;0.10;0.10;;;14.90;99.90;15.50;101878.00;;;;5130500;27;20180;-65
2022/11/02 09:39:31;;;;;;;2.30;0.50;;;15.20;99.90;15.00;101821.00;;;;5114313;28;20183;-66
2022/11/02 09:42:13;;;;;;;1.30;0.40;;;15.20;99.90;15.60;101841.00;;;;5112502;28;20625;-67
2022/11/02 09:45:05;;;;;;;8.83;1.13;;;15.10;99.90;16.20;101889.00;;;;5092598;28;20252;-65
2022/11/02 09:47:47;;;;;;;2.10;1.17;;;15.70;99.90;16.50;101898.00;;;;5092730;28;20273;-66
2022/11/02 09:50:24;;;;;;;0.10;0.10;;;16.00;99.90;15.50;101876.00;;;;5092494;28;20633;-69
2022/11/02 09:53:02;;;;;;;0.10;0.10;;;15.50;99.90;16.00;101886.00;;;;5092786;28;20174;-67
2022/11/02 09:55:35;;;;;;;0.37;0.37;;;15.70;99.90;16.60;101903.00;;;;5092510;28;20267;-64
2022/11/02 09:58:22;;;;;;;1.03;0.73;;;16.00;99.90;16.20;101900.00;;;;5092932;28;20190;-67
2022/11/02 10:00:54;;;;;;;8.77;0.60;;;16.00;99.90;14.90;101889.00;;;;5092030;28;20181;-66
2022/11/02 10:03:47;;;;;;;0.53;0.53;;;15.30;99.90;16.30;101904.00;;;;5093568;28;20207;-66
2022/11/02 10:06:36;;;;;;;0.20;0.20;;;15.60;99.90;16.50;101910.00;;;;5092244;28;20712;-67
2022/11/02 10:09:18;;;;;;;2.03;1.83;;;16.10;99.90;16.00;101905.00;;;;5098289;28;20201;-66
2022/11/02 10:12:11;;;;;;;0.37;0.37;;;15.90;99.90;17.00;101919.00;;;;5092027;28;20185;-66
2022/11/02 10:14:48;;;;;;;0.70;0.67;;;16.10;99.90;16.70;101936.00;;;;5070536;28;20194;-67
2022/11/02 10:17:24;;;;;;;1.43;1.07;;;16.50;99.90;15.80;101886.00;;;;5110364;28;20268;-67
2022/11/02 10:19:56;;;;;;;0.20;0.20;;;16.00;99.90;16.80;101934.00;;;;5111955;28;20646;-67
2022/11/02 10:33:36;;;;;;;0.30;0.30;;;15.40;99.90;15.90;101929.00;;;;5070599;28;20547;-66
2022/11/02 10:37:05;;;;;;;0.20;0.20;;;15.60;99.90;16.10;101926.00;;;;5050163;28;20187;-66
2022/11/02 10:40:06;;;;;;;3.53;0.33;;;15.70;99.90;15.50;101923.00;;;;5046607;28;20661;-66
2022/11/02 10:42:44;;;;;;;0.10;0.10;;;15.80;99.90;15.70;101921.00;;;;5021002;28;20202;-66
2022/11/02 10:45:40;;;;;;;0.10;0.10;;;15.60;99.90;17.30;101959.00;;;;5011770;28;20258;-68
2022/11/02 10:48:40;;;;;;;0.10;0.10;;;16.30;99.90;15.20;101926.00;;;;5028638;28;20204;-70
2022/11/02 10:51:13;;;;;;;2.47;0.40;;;15.50;99.90;16.10;101886.00;;;;5030338;28;20219;-68
2022/11/02 10:53:45;;;;;;;2.07;0.83;;;15.70;99.90;16.40;101948.00;;;;5062981;28;20691;-66
2022/11/02 10:56:26;;;;;;;0.10;0.10;;;16.00;99.90;15.70;101935.00;;;;5050426;28;20262;-68
2022/11/02 10:59:12;;;;;;;0.63;0.63;;;15.60;99.90;16.30;101933.00;;;;5049752;28;20176;-68
2022/11/02 11:01:58;;;;;;;0.40;0.40;;;15.90;99.90;16.00;101907.00;;;;5048682;28;20220;-77
2022/11/02 11:04:29;;;;;;;0.10;0.10;;;15.80;99.90;16.60;101944.00;;;;5044663;28;20204;-69
2022/11/02 11:06:57;;;;;;;0.30;0.30;;;16.00;99.90;15.80;101909.00;;;;5048982;28;20176;-68
2022/11/02 11:09:43;;;;;;;0.30;0.30;;;15.60;99.90;16.50;101923.00;;;;5065074;28;20183;-70
2022/11/02 11:12:36;;;;;;;0.30;0.30;;;16.00;99.90;16.10;101931.00;;;;5065148;28;20208;-72
2022/11/02 11:15:05;;;;;;;0.10;0.10;;;15.90;99.90;16.00;101916.00;;;;5065213;28;20184;-70
2022/11/02 11:17:46;;;;;;;0.30;0.30;;;15.90;99.90;16.90;101921.00;;;;5040371;28;20240;-68
2022/11/02 11:20:36;;;;;;;9.40;0.47;;;16.20;99.90;17.30;101938.00;;;;5044835;28;20157;-69
2022/11/02 11:23:23;;;;;;;1.47;0.87;;;16.60;99.90;16.00;101904.00;;;;5045309;28;20177;-68
2022/11/02 11:26:05;;;;;;;0.10;0.10;;;16.00;99.90;16.40;101918.00;;;;5045413;28;20334;-70
2022/11/02 11:28:54;;;;;;;0.10;0.10;;;16.10;99.90;15.90;101915.00;;;;5044853;28;20178;-66
2022/11/02 11:31:28;;;;;;;10.10;0.50;;;15.90;99.90;17.40;101928.00;;;;5048218;28;20249;-67
2022/11/02 11:33:57;;;;;;;0.83;0.83;;;16.40;99.90;17.10;101925.00;;;;5045721;28;20622;-67
2022/11/02 11:36:32;;;;;;;0.20;0.20;;;16.60;99.90;16.50;101898.00;;;;5029058;28;20181;-67
2022/11/02 11:39:25;;;;;;;1.30;0.20;;;16.20;99.90;17.10;101909.00;;;;5028200;28;20543;-68
2022/11/02 11:42:17;;;;;;;2.20;0.83;;;16.40;99.90;15.90;101893.00;;;;5028586;28;20207;-67
2022/11/02 11:46:03;;;;;;;0.20;0.20;;;16.00;99.90;15.90;101892.00;;;;5064805;28;20253;-67
2022/11/02 11:48:58;;;;;;;0.10;0.10;;;15.80;99.90;17.60;101910.00;;;;4975112;28;20191;-67
2022/11/02 11:51:56;;;;;;;0.30;0.30;;;16.50;99.90;16.60;101870.00;;;;4954778;28;20218;-68
2022/11/02 11:58:06;;;;;;;3.30;0.20;;;16.40;99.90;17.00;101911.00;;;;5000945;28;20560;-68
2022/11/02 12:01:14;;;;;;;0.30;0.20;;;16.60;99.90;16.80;101914.00;;;;5015324;28;20267;-67
2022/11/02 12:04:49;;;;;;;0.10;0.10;;;16.60;99.90;17.20;101920.00;;;;5013496;28;20674;-68
2022/11/02 12:08:16;;;;;;;0.10;0.10;;;16.70;99.90;18.50;101939.00;;;;5024352;28;20199;-67
2022/11/02 12:11:08;;;;;;;0.97;0.97;;;17.30;99.90;18.30;101943.00;;;;4980281;28;20290;-67
2022/11/02 12:14:54;;;;;;;0.10;0.10;;;17.70;99.90;18.00;101931.00;;;;5013225;28;20189;-67
2022/11/02 12:18:02;;;;;;;1.40;1.23;;;17.30;99.90;16.60;101915.00;;;;5026705;28;20200;-67
2022/11/02 12:20:58;;;;;;;0.40;0.40;;;16.70;99.90;16.80;101895.00;;;;5033911;28;20192;-68
2022/11/02 12:24:06;;;;;;;0.10;0.10;;;16.30;99.90;16.80;101906.00;;;;5034981;28;20176;-67
2022/11/02 12:27:30;;;;;;;0.10;0.10;;;16.40;99.90;16.90;101893.00;;;;5050701;28;20230;-67
2022/11/02 12:30:23;;;;;;;0.20;0.20;;;16.40;99.90;16.70;101881.00;;;;5058432;28;20183;-67
2022/11/02 12:33:12;;;;;;;0.77;0.30;;;16.00;99.90;16.80;101848.00;;;;5016323;28;20294;-67
2022/11/02 12:35:49;;;;;;;0.10;0.10;;;16.40;99.90;16.40;101870.00;;;;5033118;28;20534;-67